Singleton, Norway

8:06 AM AEDT on December 27, 2014 (GMT +1100)
Singleton High School | Change Station
CLOSE
Current Station
Personal Weather Station
Location: SINGLETON, NSW
Elevation: 148 ft
Nearby Weather Stations

Elev 148 ft 32.57 °S, 151.18 °E | Updated 6 minutes ago

Overcast
Overcast
66.5 °F
Feels Like 66.5 °F
N
2.0
Wind Variable Wind from SE
Gusts 5.0 mph

Today
High -- | Low -- °F
--% Chance of Precip.
Yesterday
High -- | Low -- °F
Precip. -- in
5:47 AM 8:04 PM
Waxing Crescent, 29% visible
Pressure 30.12 in
Visibility 6.2 miles
Clouds Mostly Cloudy 3800 ft
Mostly Cloudy 4500 ft
Overcast 5500 ft
Dew Point 59 °F
Humidity 76%
Rainfall 0.00 in
Snow Depth Not available.
UV 1 out of 12
Pollen Not available.
Air Quality Not available.
Flu Activity Not available.
METAR YWLM 262100Z AUTO 15011KT 9999 // BKN038 BKN045 OVC055 21/13 Q1020

More Conditions Fewer Conditions

Pressure 30.12 in
Visibility 6.2 miles
Clouds Mostly Cloudy 3800 ft
Mostly Cloudy 4500 ft
Overcast 5500 ft
Dew Point 59 °F
Humidity 76%
Rainfall 0.00 in
Snow Depth Not available.
UV 1 out of 12
Pollen Not available.
Air Quality Not available.
Flu Activity Not available.
METAR YWLM 262100Z AUTO 15011KT 9999 // BKN038 BKN045 OVC055 21/13 Q1020

More Conditions Fewer Conditions

10-Day Weather Forecast

Almanac

Astronomy

Dec. 27, 2014 Rise Set
Actual Time
Civil Twilight
Nautical Twilight
Astronomical Twilight
Moon
Length of Visible Light
Length of Day
Tomorrow will be .
, % of the Moon is Illuminated

Today's Extremes

Country Highs Country Lows

Community

WunderPhotos

Upload Photos

1,780,708 photos uploaded!

WunderBlogs® & News

Nearby

Air Quality

  Air Quality AQ Index Pollutant
Not available.

Snow Depth

Station Depth Elevation

Earthquake Activity

City Distance Mag. Time & Date
Minimum magnitude displayed is 2.5.

Coastal Water Temperatures

Place Temperature

Nearby Weather Stations